Lee's Summit, MO

6:52 PM CST on February 09, 2016 (GMT -0600)
Lee's Summit Municipal | | Change Station
CLOSE
Current Station
Airport
Location: Lee's Summit,
Elevation: 1004 ft
Nearby Weather Stations

Elev 1004 ft 38.96 °N, 94.37 °W | Updated 59 minutes ago

Clear
Clear
25 °F
Feels Like 13 °F
N
14
Wind Variable Wind from NW

Today
High -- | Low -- °F
--% Chance of Precip.
Yesterday
High -- | Low -- °F
Precip. -- in
Pressure 30.27 in
Visibility 10.0 miles
Clouds Clear
Windchill 13 °F
Dew Point 1 °F
Humidity 36%
Rainfall 0.00 in
Snow Depth Not available.
7:16 AM 5:47 PM
Waxing Crescent, 3% visible
METAR KLXT 092353Z AUTO 31012KT 10SM CLR M04/M17 A3022 RMK AO2 PK WND 31027/2315 SLP249 T10391172 11011 21039 51016
Pressure 30.27 in
Visibility 10.0 miles
Clouds Clear
Windchill 13 °F
Dew Point 1 °F
Humidity 36%
Rainfall 0.00 in
Snow Depth Not available.
7:16 AM 5:47 PM
Waxing Crescent, 3% visible
METAR KLXT 092353Z AUTO 31012KT 10SM CLR M04/M17 A3022 RMK AO2 PK WND 31027/2315 SLP249 T10391172 11011 21039 51016

10-Day Weather Forecast

Almanac

Astronomy

Feb. 09, 2016 Rise Set
Actual Time
Civil Twilight
Nautical Twilight
Astronomical Twilight
Moon
Length of Visible Light
Length of Day
Tomorrow will be .
, % of the Moon is Illuminated

Today's Extremes

State Highs State Lows

Community

WunderPhotos

Upload Photos

1,891,752 photos uploaded!

WunderBlog® & News

Nearby

Air Quality

  Air Quality AQ Index Pollutant
Not available.

Snow Depth

Station Depth Elevation

Earthquake Activity

City Distance Mag. Time & Date
Minimum magnitude displayed is 2.5.

Coastal Water Temperatures

Place Temperature

Stations

Nearby Weather Stations

Station Location Temp. Windchill Dew Point Humidity Wind Precip. Elev Updated Type
                   

Watches & Warnings

There are currently no watches in effect.